createdAt,value
2018-03-28T00:01:18.025Z,60.57
2018-03-28T00:03:46.752Z,58.17
2018-03-28T00:06:15.081Z,62.57
2018-03-28T00:08:42.655Z,53.77
2018-03-28T00:11:12.538Z,39.97
2018-03-28T00:13:42.381Z,57.07
2018-03-28T00:16:11.381Z,56.60
2018-03-28T00:18:39.486Z,52.83
2018-03-28T00:21:07.929Z,45.83
2018-03-28T00:23:35.595Z,47.20
2018-03-28T00:26:03.298Z,46.57
2018-03-28T00:28:30.920Z,39.27
2018-03-28T00:30:58.465Z,34.33
2018-03-28T00:33:26.023Z,37.33
2018-03-28T00:35:53.603Z,38.27
2018-03-28T00:38:21.262Z,49.23
2018-03-28T00:40:48.846Z,40.13
2018-03-28T00:43:16.486Z,48.90
2018-03-28T00:45:44.039Z,44.27
2018-03-28T00:48:11.612Z,50.20
2018-03-28T00:50:39.276Z,50.03
2018-03-28T00:53:07.987Z,45.80
2018-03-28T00:55:37.445Z,36.83
2018-03-28T00:58:05.027Z,44.83
2018-03-28T01:00:33.891Z,36.47
2018-03-28T01:03:01.473Z,50.43
2018-03-28T01:05:29.026Z,55.40
2018-03-28T01:07:56.611Z,52.60
2018-03-28T01:10:24.186Z,47.53
2018-03-28T01:12:53.248Z,59.67
2018-03-28T01:15:20.820Z,43.10
2018-03-28T01:17:48.479Z,42.80
2018-03-28T01:20:16.126Z,48.27
2018-03-28T01:22:43.716Z,52.83
2018-03-28T01:25:11.275Z,61.67
2018-03-28T01:27:38.832Z,74.03
2018-03-28T01:30:06.498Z,67.47
2018-03-28T01:32:34.070Z,68.77
2018-03-28T01:35:01.707Z,65.73
2018-03-28T01:37:29.285Z,69.30
2018-03-28T01:39:57.016Z,70.93
2018-03-28T01:42:24.603Z,65.30
2018-03-28T01:44:52.174Z,59.10
2018-03-28T01:47:21.595Z,54.40
2018-03-28T01:49:50.495Z,59.87
2018-03-28T01:52:19.726Z,62.63
2018-03-28T01:54:47.302Z,67.97
2018-03-28T01:57:14.852Z,77.87
2018-03-28T01:59:42.445Z,78.33
2018-03-28T02:02:10.022Z,90.27
2018-03-28T02:04:37.674Z,56.10
2018-03-28T02:07:05.892Z,80.83
2018-03-28T02:09:34.324Z,75.60
2018-03-28T02:12:02.990Z,51.43
2018-03-28T02:14:30.552Z,74.10
2018-03-28T02:16:58.090Z,58.77
2018-03-28T02:19:25.868Z,56.27
2018-03-28T02:21:53.425Z,56.07
2018-03-28T02:24:21.025Z,54.73
2018-03-28T02:26:48.592Z,56.13
2018-03-28T02:29:16.321Z,56.37
2018-03-28T02:35:05.442Z,61.47
2018-03-28T02:37:34.628Z,56.07
2018-03-28T02:40:02.191Z,64.50
2018-03-28T02:42:29.755Z,60.47
2018-03-28T02:44:58.519Z,70.30
2018-03-28T02:47:26.089Z,75.30
2018-03-28T02:49:53.687Z,83.17
2018-03-28T02:52:21.321Z,77.10
2018-03-28T02:54:48.897Z,77.03
2018-03-28T02:57:17.489Z,82.43
2018-03-28T02:59:45.073Z,80.13
2018-03-28T03:02:13.494Z,84.07
2018-03-28T03:04:42.481Z,80.80
2018-03-28T03:07:10.072Z,91.60
2018-03-28T03:09:37.712Z,91.17
2018-03-28T03:12:05.323Z,83.63
2018-03-28T03:14:32.904Z,96.77
2018-03-28T03:17:01.252Z,102.43
2018-03-28T03:19:29.719Z,103.00
2018-03-28T03:21:57.311Z,108.10
2018-03-28T03:24:24.873Z,111.07
2018-03-28T03:26:53.192Z,99.90
2018-03-28T03:29:20.784Z,89.83
2018-03-28T03:31:48.863Z,85.87
2018-03-28T03:34:16.525Z,77.80
2018-03-28T03:36:44.114Z,72.33
2018-03-28T03:39:12.451Z,71.47
2018-03-28T03:41:40.023Z,75.43
2018-03-28T03:44:07.695Z,70.33
2018-03-28T03:46:35.255Z,81.07
2018-03-28T03:49:03.775Z,84.03
2018-03-28T03:51:32.134Z,63.13
2018-03-28T03:53:59.771Z,75.70
2018-03-28T03:56:28.492Z,67.93
2018-03-28T03:58:57.049Z,71.70
2018-03-28T04:01:24.606Z,76.37
2018-03-28T04:03:52.176Z,76.73
2018-03-28T04:06:19.828Z,86.73
2018-03-28T04:08:47.371Z,91.67
2018-03-28T04:11:14.943Z,82.13
2018-03-28T04:13:42.607Z,79.50
2018-03-28T04:16:10.157Z,84.27
2018-03-28T04:18:37.714Z,83.93
2018-03-28T04:21:05.292Z,93.73
2018-03-28T04:23:32.833Z,77.17
2018-03-28T04:26:00.391Z,80.37
2018-03-28T04:28:28.476Z,85.57
2018-03-28T04:30:56.032Z,80.50
2018-03-28T04:33:23.584Z,80.07
2018-03-28T04:35:51.146Z,82.83
2018-03-28T04:38:19.591Z,81.30
2018-03-28T04:40:47.930Z,76.10
2018-03-28T04:43:15.502Z,62.90
2018-03-28T04:45:43.049Z,69.03
2018-03-28T04:48:10.610Z,64.33
2018-03-28T04:50:38.178Z,66.13
2018-03-28T04:53:05.738Z,64.83
2018-03-28T04:55:33.291Z,69.83
2018-03-28T04:58:00.965Z,67.87
2018-03-28T05:00:28.520Z,67.60
2018-03-28T05:02:56.069Z,71.07
2018-03-28T05:05:23.630Z,68.90
2018-03-28T05:07:51.184Z,71.00
2018-03-28T05:10:18.776Z,64.57
2018-03-28T05:12:46.313Z,72.73
2018-03-28T05:15:13.875Z,64.57
2018-03-28T05:17:41.443Z,77.17
2018-03-28T05:20:09.009Z,73.87
2018-03-28T05:22:36.942Z,63.17
2018-03-28T05:25:05.219Z,62.83
2018-03-28T05:27:32.818Z,59.27
2018-03-28T05:30:00.483Z,58.77
2018-03-28T05:32:28.047Z,61.70
2018-03-28T05:34:55.625Z,58.10
2018-03-28T05:37:23.192Z,58.93
2018-03-28T05:39:51.549Z,54.33
2018-03-28T05:42:19.135Z,52.80
2018-03-28T05:44:46.775Z,51.80
2018-03-28T05:47:14.364Z,63.70
2018-03-28T05:49:42.900Z,48.07
2018-03-28T05:52:10.486Z,60.97
2018-03-28T05:54:38.043Z,54.10
2018-03-28T05:57:05.618Z,61.83
2018-03-28T05:59:34.708Z,57.87
2018-03-28T06:02:02.362Z,54.63
2018-03-28T06:04:30.021Z,56.70
2018-03-28T06:06:58.574Z,59.80
2018-03-28T06:09:26.133Z,52.67
2018-03-28T06:11:54.246Z,46.07
2018-03-28T06:14:21.793Z,45.80
2018-03-28T06:16:49.349Z,44.67
2018-03-28T06:19:17.008Z,37.97
2018-03-28T06:21:44.555Z,44.40
2018-03-28T06:24:12.790Z,40.07
2018-03-28T06:26:41.146Z,45.90
2018-03-28T06:29:10.933Z,38.93
2018-03-28T06:31:38.611Z,39.83
2018-03-28T06:34:07.403Z,39.17
2018-03-28T06:36:35.061Z,37.80
2018-03-28T06:39:03.938Z,37.90
2018-03-28T06:41:34.084Z,39.43
2018-03-28T06:44:02.246Z,39.67
2018-03-28T06:46:29.919Z,38.50
2018-03-28T06:48:57.569Z,43.97
2018-03-28T06:51:25.120Z,36.30
2018-03-28T06:53:52.673Z,33.53
2018-03-28T06:56:21.037Z,32.23
2018-03-28T06:58:54.356Z,40.57
2018-03-28T07:01:22.785Z,35.57
2018-03-28T07:03:51.617Z,26.40
2018-03-28T07:06:19.167Z,30.97
2018-03-28T07:08:46.741Z,30.93
2018-03-28T07:11:14.326Z,28.43
2018-03-28T07:13:41.983Z,24.40
2018-03-28T07:16:09.550Z,31.23
2018-03-28T07:18:37.093Z,23.50
2018-03-28T07:21:05.014Z,23.60
2018-03-28T07:23:33.377Z,26.50
2018-03-28T07:26:01.011Z,24.70
2018-03-28T07:28:28.866Z,28.43
2018-03-28T07:30:56.438Z,26.80
2018-03-28T07:33:23.981Z,27.47
2018-03-28T07:35:51.589Z,23.87
2018-03-28T07:38:19.948Z,22.97
2018-03-28T07:40:47.495Z,26.77
2018-03-28T07:43:15.054Z,26.73
2018-03-28T07:45:42.747Z,21.80
2018-03-28T07:48:10.392Z,23.90
2018-03-28T07:50:38.060Z,17.77
2018-03-28T07:53:05.724Z,25.37
2018-03-28T07:55:33.380Z,20.60
2018-03-28T07:58:00.934Z,21.43
2018-03-28T08:00:29.063Z,22.73
2018-03-28T08:02:57.399Z,22.97
2018-03-28T08:05:25.066Z,22.07
2018-03-28T08:07:52.641Z,22.87
2018-03-28T08:10:20.285Z,26.23
2018-03-28T08:12:47.904Z,27.83
2018-03-28T08:15:16.255Z,26.23
2018-03-28T08:17:43.807Z,26.93
2018-03-28T08:20:11.353Z,26.93
2018-03-28T08:22:38.927Z,27.87
2018-03-28T08:25:06.640Z,33.97
2018-03-28T08:27:34.313Z,31.37
2018-03-28T08:30:01.882Z,30.00
2018-03-28T08:32:29.514Z,27.77
2018-03-28T08:34:57.077Z,32.20
2018-03-28T08:37:24.649Z,32.77
2018-03-28T08:39:52.192Z,27.80
2018-03-28T08:42:20.521Z,36.23
2018-03-28T08:44:48.193Z,32.87
2018-03-28T08:47:15.931Z,26.33
2018-03-28T08:49:43.621Z,34.30
2018-03-28T08:52:11.223Z,29.83
2018-03-28T08:54:39.535Z,25.90
2018-03-28T08:57:07.164Z,23.70
2018-03-28T08:59:35.845Z,26.47
2018-03-28T09:02:04.248Z,22.33
2018-03-28T09:04:31.801Z,24.23
2018-03-28T09:06:59.397Z,24.93
2018-03-28T09:09:27.493Z,22.90
2018-03-28T09:11:55.048Z,23.10
2018-03-28T09:14:23.756Z,21.87
2018-03-28T09:16:51.976Z,26.87
2018-03-28T09:19:19.527Z,20.27
2018-03-28T09:21:47.127Z,21.50
2018-03-28T09:24:14.678Z,24.13
2018-03-28T09:26:42.239Z,23.60
2018-03-28T09:29:10.631Z,22.17
2018-03-28T09:31:38.832Z,22.53
2018-03-28T09:34:07.155Z,23.50
2018-03-28T09:36:35.199Z,19.43
2018-03-28T09:39:03.521Z,25.90
2018-03-28T09:41:31.080Z,20.80
2018-03-28T09:43:59.465Z,21.20
2018-03-28T09:46:27.046Z,25.13
2018-03-28T09:48:54.606Z,22.43
2018-03-28T09:51:22.192Z,22.00
2018-03-28T09:53:50.518Z,24.07
2018-03-28T09:56:18.058Z,17.83
2018-03-28T09:58:45.634Z,21.77
2018-03-28T10:01:19.064Z,22.43
2018-03-28T10:03:50.530Z,19.13
2018-03-28T10:06:18.079Z,20.20
2018-03-28T10:08:45.627Z,23.00
2018-03-28T10:11:13.188Z,20.07
2018-03-28T10:13:40.743Z,18.10
2018-03-28T10:16:08.298Z,22.43
2018-03-28T10:18:35.865Z,15.23
2018-03-28T10:21:03.425Z,16.40
2018-03-28T10:23:30.986Z,17.60
2018-03-28T10:25:58.565Z,18.40
2018-03-28T10:28:26.474Z,20.03
2018-03-28T10:30:54.810Z,16.33
2018-03-28T10:33:23.111Z,13.80
2018-03-28T10:35:51.437Z,14.20
2018-03-28T10:38:19.115Z,14.27
2018-03-28T10:40:46.965Z,16.73
2018-03-28T10:43:14.543Z,8.50
2018-03-28T10:45:42.089Z,12.60
2018-03-28T10:48:09.775Z,14.00
2018-03-28T10:50:37.429Z,11.73
2018-03-28T10:53:04.969Z,10.27
2018-03-28T10:55:32.534Z,13.97
2018-03-28T10:58:00.919Z,13.00
2018-03-28T11:00:28.457Z,12.83
2018-03-28T11:02:56.019Z,13.87
2018-03-28T11:05:23.572Z,11.03
2018-03-28T11:07:52.012Z,11.10
2018-03-28T11:10:20.367Z,12.27
2018-03-28T11:12:47.927Z,9.57
2018-03-28T11:15:15.497Z,14.90
2018-03-28T11:17:43.083Z,12.30
2018-03-28T11:20:10.735Z,11.73
2018-03-28T11:22:38.301Z,13.43
2018-03-28T11:25:05.943Z,13.77
2018-03-28T11:27:33.487Z,13.27
2018-03-28T11:30:01.080Z,13.70
2018-03-28T11:32:28.648Z,12.10
2018-03-28T11:34:57.703Z,13.37
2018-03-28T11:37:25.256Z,14.60
2018-03-28T11:39:52.816Z,18.63
2018-03-28T11:42:20.372Z,15.43
2018-03-28T11:44:47.924Z,14.63
2018-03-28T11:47:15.631Z,15.43
2018-03-28T11:49:43.284Z,14.83
2018-03-28T11:52:10.948Z,13.33
2018-03-28T11:54:38.641Z,17.30
2018-03-28T11:57:06.989Z,17.73
2018-03-28T11:59:34.559Z,15.07
2018-03-28T12:02:02.125Z,14.87
2018-03-28T12:04:29.748Z,11.13
2018-03-28T12:06:59.231Z,13.70
2018-03-28T12:09:26.798Z,16.23
2018-03-28T12:11:54.351Z,19.37
2018-03-28T12:14:21.965Z,15.67
2018-03-28T12:16:49.572Z,16.27
2018-03-28T12:19:17.891Z,15.27
2018-03-28T12:21:45.913Z,13.20
2018-03-28T12:24:14.244Z,13.50
2018-03-28T12:26:41.795Z,14.70
2018-03-28T12:29:10.028Z,17.03
2018-03-28T12:31:38.358Z,14.60
2018-03-28T12:34:06.581Z,15.83
2018-03-28T12:36:34.916Z,18.27
2018-03-28T12:39:02.578Z,15.23
2018-03-28T12:41:30.141Z,13.57
2018-03-28T12:43:57.708Z,17.13
2018-03-28T12:46:26.072Z,16.50
2018-03-28T12:48:53.625Z,12.30
2018-03-28T12:51:21.178Z,11.03
2018-03-28T12:53:48.781Z,17.80
2018-03-28T12:56:16.432Z,17.00
2018-03-28T12:58:43.983Z,14.07
2018-03-28T13:01:11.744Z,15.77
2018-03-28T13:03:40.223Z,15.97
2018-03-28T13:06:07.764Z,14.47
2018-03-28T13:08:35.323Z,12.50
2018-03-28T13:11:02.879Z,17.87
2018-03-28T13:13:31.262Z,16.27
2018-03-28T13:15:58.823Z,13.13
2018-03-28T13:18:27.336Z,15.67
2018-03-28T13:20:55.001Z,17.40
2018-03-28T13:23:22.569Z,16.30
2018-03-28T13:25:50.215Z,13.07
2018-03-28T13:28:17.760Z,16.47
2018-03-28T13:30:45.336Z,13.93
2018-03-28T13:33:14.416Z,13.40
2018-03-28T13:35:41.994Z,12.03
2018-03-28T13:38:09.571Z,16.93
2018-03-28T13:40:37.136Z,14.67
2018-03-28T13:43:04.695Z,16.60
2018-03-28T13:45:32.768Z,19.07
2018-03-28T13:48:01.085Z,14.43
2018-03-28T13:50:28.691Z,17.20
2018-03-28T13:52:56.263Z,12.17
2018-03-28T13:55:23.808Z,14.33
2018-03-28T13:57:51.501Z,12.77
2018-03-28T14:00:19.843Z,12.80
2018-03-28T14:02:47.516Z,14.43
2018-03-28T14:05:15.082Z,11.93
2018-03-28T14:07:42.729Z,13.43
2018-03-28T14:10:10.289Z,12.70
2018-03-28T14:12:37.833Z,9.40
2018-03-28T14:15:05.395Z,8.70
2018-03-28T14:17:33.039Z,9.23
2018-03-28T14:20:00.604Z,7.70
2018-03-28T14:22:28.885Z,10.53
2018-03-28T14:24:56.433Z,9.30
2018-03-28T14:27:23.972Z,9.57
2018-03-28T14:29:52.287Z,7.70
2018-03-28T14:32:19.862Z,7.57
2018-03-28T14:34:47.441Z,7.53
2018-03-28T14:37:15.010Z,8.97
2018-03-28T14:39:43.802Z,8.07
2018-03-28T14:42:11.612Z,9.40
2018-03-28T14:44:39.191Z,6.93
2018-03-28T14:47:06.730Z,6.40
2018-03-28T14:49:34.284Z,10.17
2018-03-28T14:52:01.865Z,6.97
2018-03-28T14:54:29.526Z,6.77
2018-03-28T14:56:57.071Z,7.30
2018-03-28T14:59:24.643Z,7.73
2018-03-28T15:01:52.201Z,7.07
2018-03-28T15:04:19.747Z,7.50
2018-03-28T15:06:47.313Z,6.37
2018-03-28T15:09:14.871Z,5.70
2018-03-28T15:11:42.419Z,5.90
2018-03-28T15:14:09.990Z,5.67
2018-03-28T15:16:37.597Z,4.57
2018-03-28T15:19:05.247Z,4.93
2018-03-28T15:21:33.485Z,6.03
2018-03-28T15:24:01.054Z,5.87
2018-03-28T15:26:28.606Z,6.00
2018-03-28T15:28:56.227Z,6.67
2018-03-28T15:31:23.877Z,8.73
2018-03-28T15:33:51.541Z,6.47
2018-03-28T15:36:19.270Z,5.67
2018-03-28T15:38:46.868Z,7.03
2018-03-28T15:41:14.426Z,5.80
2018-03-28T15:43:41.999Z,6.67
2018-03-28T15:46:10.370Z,7.37
2018-03-28T15:48:38.972Z,8.40
2018-03-28T15:51:06.543Z,7.63
2018-03-28T15:53:34.867Z,7.40
2018-03-28T15:56:02.423Z,7.43
2018-03-28T15:58:29.991Z,11.13
2018-03-28T16:00:57.558Z,7.67
2018-03-28T16:03:25.902Z,8.57
2018-03-28T16:05:53.471Z,8.33
2018-03-28T16:08:21.041Z,12.63
2018-03-28T16:10:49.541Z,12.13
2018-03-28T16:13:17.932Z,13.17
2018-03-28T16:15:45.500Z,9.23
2018-03-28T16:18:13.583Z,14.83
2018-03-28T16:20:41.157Z,14.37
2018-03-28T16:23:09.497Z,12.20
2018-03-28T16:25:37.057Z,13.67
2018-03-28T16:28:04.905Z,9.50
2018-03-28T16:30:32.496Z,11.97
2018-03-28T16:33:00.992Z,12.13
2018-03-28T16:35:28.586Z,11.83
2018-03-28T16:37:57.869Z,12.17
2018-03-28T16:40:26.187Z,12.53
2018-03-28T16:42:53.751Z,14.17
2018-03-28T16:45:23.142Z,11.63
2018-03-28T16:47:50.716Z,13.47
2018-03-28T16:50:18.318Z,7.10
2018-03-28T16:52:45.856Z,8.90
2018-03-28T16:55:13.709Z,5.27
2018-03-28T16:57:42.299Z,6.87
2018-03-28T17:00:09.852Z,7.43
2018-03-28T17:02:38.951Z,6.57
2018-03-28T17:05:08.588Z,4.80
2018-03-28T17:07:36.188Z,5.67
2018-03-28T17:10:03.922Z,4.97
2018-03-28T17:12:31.549Z,8.67
2018-03-28T17:14:59.106Z,9.20
2018-03-28T17:17:26.679Z,6.80
2018-03-28T17:19:59.128Z,12.80
2018-03-28T17:22:27.739Z,9.70
2018-03-28T17:24:55.324Z,5.70
2018-03-28T17:27:23.372Z,6.53
2018-03-28T17:29:51.045Z,6.60
2018-03-28T17:32:18.697Z,7.40
2018-03-28T17:34:46.241Z,9.20
2018-03-28T17:37:14.427Z,10.00
2018-03-28T17:39:41.987Z,9.60
2018-03-28T17:42:09.828Z,9.70
2018-03-28T17:44:38.249Z,14.90
2018-03-28T17:47:05.810Z,13.27
2018-03-28T17:49:33.472Z,11.00
2018-03-28T17:52:01.128Z,8.50
2018-03-28T17:54:29.136Z,12.03
2018-03-28T17:56:57.513Z,8.00
2018-03-28T17:59:25.855Z,8.67
2018-03-28T18:01:53.444Z,5.70
2018-03-28T18:04:21.775Z,7.23
2018-03-28T18:06:49.335Z,8.90
2018-03-28T18:09:16.941Z,11.10
2018-03-28T18:11:45.946Z,13.83
2018-03-28T18:14:14.288Z,12.27
2018-03-28T18:16:41.876Z,12.90
2018-03-28T18:19:11.423Z,13.07
2018-03-28T18:21:38.990Z,13.37
2018-03-28T18:24:09.136Z,10.70
2018-03-28T18:26:36.684Z,10.87
2018-03-28T18:29:04.244Z,9.60
2018-03-28T18:31:31.821Z,8.67
2018-03-28T18:33:59.372Z,9.20
2018-03-28T18:36:27.036Z,11.27
2018-03-28T18:38:54.614Z,11.17
2018-03-28T18:41:22.935Z,7.97
2018-03-28T18:43:50.538Z,8.87
2018-03-28T18:46:18.271Z,7.50
2018-03-28T18:48:45.882Z,7.77
2018-03-28T18:51:14.949Z,8.43
2018-03-28T18:53:42.508Z,7.93
2018-03-28T18:56:10.102Z,7.63
2018-03-28T18:58:37.648Z,7.17
2018-03-28T19:01:05.236Z,7.37
2018-03-28T19:03:33.551Z,8.83
2018-03-28T19:06:01.100Z,9.83
2018-03-28T19:08:28.693Z,13.27
2018-03-28T19:10:56.253Z,14.53
2018-03-28T19:13:23.807Z,15.13
2018-03-28T19:15:51.415Z,14.33
2018-03-28T19:18:19.758Z,12.67
2018-03-28T19:20:47.329Z,13.60
2018-03-28T19:23:14.896Z,12.90
2018-03-28T19:25:42.446Z,13.00
2018-03-28T19:28:11.031Z,12.53
2018-03-28T19:30:38.605Z,14.33
2018-03-28T19:33:06.161Z,13.90
2018-03-28T19:35:33.712Z,14.30
2018-03-28T19:38:01.330Z,15.63
2018-03-28T19:40:28.896Z,18.30
2018-03-28T19:42:56.462Z,18.40
2018-03-28T19:45:24.042Z,17.00
2018-03-28T19:47:52.432Z,18.97
2018-03-28T19:50:19.983Z,17.37
2018-03-28T19:52:47.558Z,17.53
2018-03-28T19:55:15.116Z,16.07
2018-03-28T19:57:42.681Z,14.03
2018-03-28T20:00:11.111Z,13.83
2018-03-28T20:02:38.683Z,13.87
2018-03-28T20:05:06.282Z,12.00
2018-03-28T20:07:34.300Z,12.53
2018-03-28T20:10:01.915Z,11.83
2018-03-28T20:12:30.247Z,11.97
2018-03-28T20:14:57.827Z,12.77
2018-03-28T20:17:25.395Z,13.00
2018-03-28T20:19:54.048Z,12.77
2018-03-28T20:22:21.620Z,12.50
2018-03-28T20:24:50.160Z,11.03
2018-03-28T20:27:20.358Z,13.80
2018-03-28T20:29:48.403Z,12.00
2018-03-28T20:32:15.952Z,10.37
2018-03-28T20:34:43.503Z,9.63
2018-03-28T20:37:11.118Z,9.83
2018-03-28T20:39:38.680Z,10.30
2018-03-28T20:42:06.285Z,9.10
2018-03-28T20:44:33.886Z,10.07
2018-03-28T20:47:01.922Z,12.27
2018-03-28T20:49:31.415Z,10.47
2018-03-28T20:52:00.608Z,11.90
2018-03-28T20:54:28.943Z,15.00
2018-03-28T20:56:56.507Z,15.27
2018-03-28T20:59:24.054Z,15.70
2018-03-28T21:01:51.632Z,15.37
2018-03-28T21:04:19.187Z,18.03
2018-03-28T21:06:46.848Z,14.87
2018-03-28T21:09:14.386Z,16.40
2018-03-28T21:11:41.941Z,16.40
2018-03-28T21:14:10.086Z,16.33
2018-03-28T21:16:38.618Z,17.50
2018-03-28T21:19:06.168Z,18.20
2018-03-28T21:21:34.741Z,17.70
2018-03-28T21:24:02.321Z,16.83
2018-03-28T21:26:31.402Z,16.93
2018-03-28T21:28:58.967Z,16.67
2018-03-28T21:31:26.521Z,17.83
2018-03-28T21:33:54.092Z,17.00
2018-03-28T21:36:21.670Z,15.87
2018-03-28T21:38:49.325Z,15.57
2018-03-28T21:41:16.886Z,13.80
2018-03-28T21:43:44.444Z,12.97
2018-03-28T21:46:11.997Z,13.97
2018-03-28T21:48:40.999Z,12.70
2018-03-28T21:51:09.029Z,13.10
2018-03-28T21:53:36.579Z,13.53
2018-03-28T21:56:04.911Z,13.80
2018-03-28T21:58:32.470Z,14.27
2018-03-28T22:01:00.033Z,14.00
2018-03-28T22:03:28.271Z,14.33
2018-03-28T22:05:55.852Z,14.17
2018-03-28T22:08:23.426Z,15.57
2018-03-28T22:10:51.967Z,15.10
2018-03-28T22:13:20.479Z,14.30
2018-03-28T22:15:48.036Z,15.30
2018-03-28T22:18:15.597Z,16.13
2018-03-28T22:20:44.110Z,15.83
2018-03-28T22:23:11.649Z,16.27
2018-03-28T22:25:40.471Z,16.63
2018-03-28T22:28:08.108Z,16.97
2018-03-28T22:30:35.683Z,18.77
2018-03-28T22:33:03.345Z,17.30
2018-03-28T22:35:31.442Z,17.00
2018-03-28T22:37:59.081Z,18.20
2018-03-28T22:40:27.762Z,19.03
2018-03-28T22:42:55.340Z,17.53
2018-03-28T22:45:22.992Z,20.13
2018-03-28T22:47:50.555Z,18.80
2018-03-28T22:50:18.178Z,17.60
2018-03-28T22:52:46.495Z,17.90
2018-03-28T22:55:14.531Z,18.40
2018-03-28T22:57:42.206Z,17.03
2018-03-28T23:00:09.876Z,16.83
2018-03-28T23:02:37.427Z,17.67
2018-03-28T23:05:06.390Z,16.87
2018-03-28T23:07:35.527Z,15.93
2018-03-28T23:10:03.317Z,17.27
2018-03-28T23:12:31.051Z,16.17
2018-03-28T23:14:58.623Z,16.90
2018-03-28T23:17:26.172Z,16.30
2018-03-28T23:19:55.140Z,16.00
2018-03-28T23:22:34.734Z,15.57
2018-03-28T23:25:02.313Z,14.87
2018-03-28T23:27:29.882Z,15.37
2018-03-28T23:29:57.455Z,15.07
2018-03-28T23:32:25.814Z,15.60
2018-03-28T23:34:53.368Z,15.57
2018-03-28T23:37:20.928Z,15.63
2018-03-28T23:39:48.573Z,14.67
2018-03-28T23:42:16.153Z,14.93
2018-03-28T23:44:43.702Z,14.40
2018-03-28T23:47:11.379Z,14.90
2018-03-28T23:49:38.950Z,14.90
2018-03-28T23:52:06.584Z,15.33
2018-03-28T23:54:34.158Z,15.27
2018-03-28T23:57:01.726Z,16.70
2018-03-28T23:59:29.381Z,15.10
